sensor_id;sensor_type;location;lat;lon;timestamp;P1;durP1;ratioP1;P2;durP2;ratioP2
71296;SDS011;59082;50.658;4.608;2022-10-31T06:58:39;18.48;;;9.50;;
71296;SDS011;59082;50.658;4.608;2022-10-31T07:01:04;18.83;;;9.63;;
71296;SDS011;59082;50.658;4.608;2022-10-31T07:03:40;15.27;;;9.63;;
71296;SDS011;59082;50.658;4.608;2022-10-31T07:06:06;16.60;;;9.57;;
71296;SDS011;59082;50.658;4.608;2022-10-31T07:08:31;16.13;;;11.30;;
71296;SDS011;59082;50.658;4.608;2022-10-31T07:10:57;17.23;;;10.32;;
71296;SDS011;59082;50.658;4.608;2022-10-31T07:13:23;16.15;;;10.40;;
71296;SDS011;59082;50.658;4.608;2022-10-31T07:15:53;17.35;;;10.35;;
71296;SDS011;59082;50.658;4.608;2022-10-31T07:18:19;14.40;;;9.57;;
71296;SDS011;59082;50.658;4.608;2022-10-31T07:20:46;19.85;;;9.98;;
71296;SDS011;59082;50.658;4.608;2022-10-31T07:23:13;16.05;;;10.20;;
71296;SDS011;59082;50.658;4.608;2022-10-31T07:25:38;18.90;;;10.80;;
71296;SDS011;59082;50.658;4.608;2022-10-31T07:28:04;16.73;;;10.23;;
71296;SDS011;59082;50.658;4.608;2022-10-31T07:30:31;17.53;;;10.73;;
71296;SDS011;59082;50.658;4.608;2022-10-31T07:32:56;17.23;;;11.27;;
71296;SDS011;59082;50.658;4.608;2022-10-31T07:35:23;17.87;;;10.90;;
71296;SDS011;59082;50.658;4.608;2022-10-31T07:37:50;15.65;;;9.40;;
71296;SDS011;59082;50.658;4.608;2022-10-31T07:40:16;19.30;;;10.52;;
71296;SDS011;59082;50.658;4.608;2022-10-31T07:42:43;17.20;;;10.23;;
71296;SDS011;59082;50.658;4.608;2022-10-31T07:45:12;17.90;;;9.77;;
71296;SDS011;59082;50.658;4.608;2022-10-31T07:47:39;17.92;;;10.43;;
71296;SDS011;59082;50.658;4.608;2022-10-31T07:50:06;15.68;;;10.05;;
71296;SDS011;59082;50.658;4.608;2022-10-31T07:52:33;17.63;;;10.40;;
71296;SDS011;59082;50.658;4.608;2022-10-31T07:54:59;18.37;;;9.70;;
71296;SDS011;59082;50.658;4.608;2022-10-31T07:57:24;16.48;;;9.23;;
71296;SDS011;59082;50.658;4.608;2022-10-31T07:59:50;18.30;;;10.00;;
71296;SDS011;59082;50.658;4.608;2022-10-31T08:02:16;16.38;;;9.75;;
71296;SDS011;59082;50.658;4.608;2022-10-31T08:04:41;16.07;;;9.40;;
71296;SDS011;59082;50.658;4.608;2022-10-31T08:07:07;15.33;;;9.27;;
71296;SDS011;59082;50.658;4.608;2022-10-31T08:09:32;17.30;;;9.02;;
71296;SDS011;59082;50.658;4.608;2022-10-31T08:11:58;18.57;;;8.90;;
71296;SDS011;59082;50.658;4.608;2022-10-31T08:14:24;13.80;;;8.48;;
71296;SDS011;59082;50.658;4.608;2022-10-31T08:16:49;12.20;;;9.20;;
71296;SDS011;59082;50.658;4.608;2022-10-31T08:19:15;14.03;;;7.77;;
71296;SDS011;59082;50.658;4.608;2022-10-31T08:21:40;16.92;;;8.80;;
71296;SDS011;59082;50.658;4.608;2022-10-31T08:24:06;12.17;;;8.13;;
71296;SDS011;59082;50.658;4.608;2022-10-31T08:26:32;13.50;;;7.97;;
71296;SDS011;59082;50.658;4.608;2022-10-31T08:28:57;13.43;;;7.57;;
71296;SDS011;59082;50.658;4.608;2022-10-31T08:31:23;15.35;;;9.38;;
71296;SDS011;59082;50.658;4.608;2022-10-31T08:33:51;10.67;;;7.20;;
71296;SDS011;59082;50.658;4.608;2022-10-31T08:36:17;18.23;;;7.68;;
71296;SDS011;59082;50.658;4.608;2022-10-31T08:38:42;12.10;;;7.93;;
71296;SDS011;59082;50.658;4.608;2022-10-31T08:41:08;13.07;;;7.50;;
71296;SDS011;59082;50.658;4.608;2022-10-31T08:43:33;11.43;;;8.53;;
71296;SDS011;59082;50.658;4.608;2022-10-31T08:45:59;9.80;;;7.40;;
71296;SDS011;59082;50.658;4.608;2022-10-31T08:48:25;15.35;;;8.55;;
71296;SDS011;59082;50.658;4.608;2022-10-31T08:50:50;11.73;;;8.10;;
71296;SDS011;59082;50.658;4.608;2022-10-31T08:53:24;12.50;;;8.25;;
71296;SDS011;59082;50.658;4.608;2022-10-31T08:55:50;10.50;;;8.07;;
71296;SDS011;59082;50.658;4.608;2022-10-31T08:58:19;13.93;;;7.78;;
71296;SDS011;59082;50.658;4.608;2022-10-31T09:00:45;12.87;;;8.57;;
71296;SDS011;59082;50.658;4.608;2022-10-31T09:03:12;10.57;;;6.55;;
71296;SDS011;59082;50.658;4.608;2022-10-31T09:05:41;10.75;;;7.60;;
71296;SDS011;59082;50.658;4.608;2022-10-31T09:08:06;11.17;;;7.10;;
71296;SDS011;59082;50.658;4.608;2022-10-31T09:10:34;10.52;;;7.57;;
71296;SDS011;59082;50.658;4.608;2022-10-31T09:13:02;13.48;;;7.05;;
71296;SDS011;59082;50.658;4.608;2022-10-31T09:15:32;10.70;;;6.88;;
71296;SDS011;59082;50.658;4.608;2022-10-31T09:17:59;12.02;;;7.18;;
71296;SDS011;59082;50.658;4.608;2022-10-31T09:20:26;15.57;;;7.07;;
71296;SDS011;59082;50.658;4.608;2022-10-31T09:22:59;13.50;;;7.13;;
71296;SDS011;59082;50.658;4.608;2022-10-31T09:25:26;10.93;;;7.10;;
71296;SDS011;59082;50.658;4.608;2022-10-31T09:27:59;13.35;;;7.03;;
71296;SDS011;59082;50.658;4.608;2022-10-31T09:30:29;9.95;;;6.72;;
71296;SDS011;59082;50.658;4.608;2022-10-31T09:33:07;12.53;;;6.70;;
71296;SDS011;59082;50.658;4.608;2022-10-31T09:35:35;12.45;;;7.40;;
71296;SDS011;59082;50.658;4.608;2022-10-31T09:38:03;9.48;;;6.50;;
71296;SDS011;59082;50.658;4.608;2022-10-31T09:40:37;12.50;;;6.88;;
71296;SDS011;59082;50.658;4.608;2022-10-31T09:46:04;10.23;;;6.75;;
71296;SDS011;59082;50.658;4.608;2022-10-31T09:48:53;12.57;;;7.32;;
71296;SDS011;59082;50.658;4.608;2022-10-31T09:51:42;12.07;;;7.00;;
71296;SDS011;59082;50.658;4.608;2022-10-31T09:56:39;11.37;;;6.40;;
71296;SDS011;59082;50.658;4.608;2022-10-31T09:59:06;13.25;;;6.78;;
71296;SDS011;59082;50.658;4.608;2022-10-31T10:06:56;15.50;;;7.28;;
71296;SDS011;59082;50.658;4.608;2022-10-31T10:09:24;15.27;;;6.90;;
71296;SDS011;59082;50.658;4.608;2022-10-31T10:14:33;10.68;;;6.53;;
71296;SDS011;59082;50.658;4.608;2022-10-31T10:20:16;14.68;;;6.43;;
71296;SDS011;59082;50.658;4.608;2022-10-31T10:26:40;13.30;;;6.70;;
71296;SDS011;59082;50.658;4.608;2022-10-31T10:28:51;11.27;;;6.05;;
71296;SDS011;59082;50.658;4.608;2022-10-31T10:31:27;11.18;;;5.90;;
71296;SDS011;59082;50.658;4.608;2022-10-31T10:33:59;9.20;;;5.72;;
71296;SDS011;59082;50.658;4.608;2022-10-31T10:36:38;12.23;;;6.10;;
71296;SDS011;59082;50.658;4.608;2022-10-31T10:39:18;12.07;;;6.72;;
71296;SDS011;59082;50.658;4.608;2022-10-31T10:41:49;14.70;;;5.97;;
71296;SDS011;59082;50.658;4.608;2022-10-31T10:44:37;8.75;;;5.55;;
71296;SDS011;59082;50.658;4.608;2022-10-31T10:47:23;10.35;;;5.60;;
71296;SDS011;59082;50.658;4.608;2022-10-31T10:50:27;9.47;;;5.07;;
71296;SDS011;59082;50.658;4.608;2022-10-31T10:56:30;13.32;;;6.47;;
71296;SDS011;59082;50.658;4.608;2022-10-31T10:58:43;8.73;;;5.25;;
71296;SDS011;59082;50.658;4.608;2022-10-31T11:01:11;14.63;;;5.80;;
71296;SDS011;59082;50.658;4.608;2022-10-31T11:03:38;13.90;;;5.70;;
71296;SDS011;59082;50.658;4.608;2022-10-31T11:06:04;8.70;;;5.03;;
71296;SDS011;59082;50.658;4.608;2022-10-31T11:08:33;11.07;;;6.20;;
71296;SDS011;59082;50.658;4.608;2022-10-31T11:11:03;9.83;;;5.17;;
71296;SDS011;59082;50.658;4.608;2022-10-31T11:13:33;10.13;;;4.72;;
71296;SDS011;59082;50.658;4.608;2022-10-31T11:16:02;26.67;;;7.10;;
71296;SDS011;59082;50.658;4.608;2022-10-31T11:18:34;11.57;;;4.95;;
71296;SDS011;59082;50.658;4.608;2022-10-31T11:21:03;12.35;;;4.53;;
71296;SDS011;59082;50.658;4.608;2022-10-31T11:23:30;11.17;;;4.97;;
71296;SDS011;59082;50.658;4.608;2022-10-31T11:28:26;7.28;;;4.65;;
71296;SDS011;59082;50.658;4.608;2022-10-31T11:31:12;10.60;;;4.75;;
71296;SDS011;59082;50.658;4.608;2022-10-31T11:38:46;10.70;;;3.63;;
71296;SDS011;59082;50.658;4.608;2022-10-31T11:41:18;9.48;;;4.15;;
71296;SDS011;59082;50.658;4.608;2022-10-31T11:46:46;9.70;;;4.57;;
71296;SDS011;59082;50.658;4.608;2022-10-31T11:49:20;9.63;;;4.17;;
71296;SDS011;59082;50.658;4.608;2022-10-31T11:51:49;7.65;;;4.13;;
71296;SDS011;59082;50.658;4.608;2022-10-31T11:54:24;14.65;;;4.75;;
71296;SDS011;59082;50.658;4.608;2022-10-31T11:56:55;9.05;;;4.45;;
71296;SDS011;59082;50.658;4.608;2022-10-31T11:59:26;8.80;;;4.23;;
71296;SDS011;59082;50.658;4.608;2022-10-31T12:01:54;9.30;;;4.70;;
71296;SDS011;59082;50.658;4.608;2022-10-31T12:07:16;11.45;;;4.75;;
71296;SDS011;59082;50.658;4.608;2022-10-31T12:09:41;8.77;;;3.97;;
71296;SDS011;59082;50.658;4.608;2022-10-31T12:12:26;7.43;;;4.00;;
71296;SDS011;59082;50.658;4.608;2022-10-31T12:28:57;7.87;;;3.63;;
71296;SDS011;59082;50.658;4.608;2022-10-31T12:34:56;7.50;;;3.78;;
71296;SDS011;59082;50.658;4.608;2022-10-31T12:37:53;7.97;;;4.40;;
71296;SDS011;59082;50.658;4.608;2022-10-31T12:40:43;9.93;;;3.97;;
71296;SDS011;59082;50.658;4.608;2022-10-31T12:46:02;10.05;;;4.25;;
71296;SDS011;59082;50.658;4.608;2022-10-31T13:02:12;6.60;;;2.93;;
71296;SDS011;59082;50.658;4.608;2022-10-31T13:07:34;8.93;;;3.72;;
71296;SDS011;59082;50.658;4.608;2022-10-31T13:12:57;10.02;;;3.90;;
71296;SDS011;59082;50.658;4.608;2022-10-31T13:15:28;8.80;;;3.77;;
71296;SDS011;59082;50.658;4.608;2022-10-31T13:17:59;13.13;;;3.55;;
71296;SDS011;59082;50.658;4.608;2022-10-31T13:20:34;6.32;;;3.80;;
71296;SDS011;59082;50.658;4.608;2022-10-31T13:25:55;11.20;;;4.97;;
71296;SDS011;59082;50.658;4.608;2022-10-31T13:28:40;15.47;;;4.60;;
71296;SDS011;59082;50.658;4.608;2022-10-31T13:31:11;8.57;;;3.92;;
71296;SDS011;59082;50.658;4.608;2022-10-31T13:33:45;9.15;;;4.75;;
71296;SDS011;59082;50.658;4.608;2022-10-31T13:36:19;10.80;;;4.10;;
71296;SDS011;59082;50.658;4.608;2022-10-31T13:41:49;11.10;;;4.68;;
71296;SDS011;59082;50.658;4.608;2022-10-31T13:44:25;7.53;;;4.50;;
71296;SDS011;59082;50.658;4.608;2022-10-31T13:46:53;10.70;;;4.13;;
71296;SDS011;59082;50.658;4.608;2022-10-31T13:54:35;14.93;;;4.53;;
71296;SDS011;59082;50.658;4.608;2022-10-31T13:57:06;9.45;;;4.68;;
71296;SDS011;59082;50.658;4.608;2022-10-31T13:59:45;8.50;;;3.20;;
71296;SDS011;59082;50.658;4.608;2022-10-31T14:02:15;13.43;;;5.15;;
71296;SDS011;59082;50.658;4.608;2022-10-31T14:04:46;12.57;;;4.63;;
71296;SDS011;59082;50.658;4.608;2022-10-31T14:07:18;9.98;;;4.28;;
71296;SDS011;59082;50.658;4.608;2022-10-31T14:09:54;9.40;;;4.05;;
71296;SDS011;59082;50.658;4.608;2022-10-31T14:17:40;9.57;;;3.80;;
71296;SDS011;59082;50.658;4.608;2022-10-31T14:22:37;10.00;;;3.17;;
71296;SDS011;59082;50.658;4.608;2022-10-31T14:27:58;9.00;;;3.67;;
71296;SDS011;59082;50.658;4.608;2022-10-31T14:30:25;6.38;;;3.10;;
71296;SDS011;59082;50.658;4.608;2022-10-31T14:33:02;7.20;;;4.13;;
71296;SDS011;59082;50.658;4.608;2022-10-31T14:35:53;7.22;;;3.65;;
71296;SDS011;59082;50.658;4.608;2022-10-31T14:41:58;7.30;;;3.70;;
71296;SDS011;59082;50.658;4.608;2022-10-31T14:50:36;8.70;;;3.92;;
71296;SDS011;59082;50.658;4.608;2022-10-31T14:53:05;8.07;;;3.05;;
71296;SDS011;59082;50.658;4.608;2022-10-31T14:55:40;9.47;;;4.07;;
71296;SDS011;59082;50.658;4.608;2022-10-31T14:58:20;7.43;;;3.42;;
71296;SDS011;59082;50.658;4.608;2022-10-31T15:00:50;10.02;;;3.75;;
71296;SDS011;59082;50.658;4.608;2022-10-31T15:03:22;10.90;;;3.55;;
71296;SDS011;59082;50.658;4.608;2022-10-31T15:06:09;7.38;;;3.92;;
71296;SDS011;59082;50.658;4.608;2022-10-31T15:08:43;8.80;;;3.97;;
71296;SDS011;59082;50.658;4.608;2022-10-31T15:11:15;10.65;;;3.75;;
71296;SDS011;59082;50.658;4.608;2022-10-31T15:13:51;8.07;;;4.20;;
71296;SDS011;59082;50.658;4.608;2022-10-31T15:16:30;9.30;;;3.17;;
71296;SDS011;59082;50.658;4.608;2022-10-31T15:19:04;11.27;;;3.88;;
71296;SDS011;59082;50.658;4.608;2022-10-31T15:21:31;6.90;;;3.10;;
71296;SDS011;59082;50.658;4.608;2022-10-31T15:23:59;9.38;;;3.95;;
71296;SDS011;59082;50.658;4.608;2022-10-31T15:26:27;7.43;;;3.72;;
71296;SDS011;59082;50.658;4.608;2022-10-31T15:28:59;8.45;;;3.53;;
71296;SDS011;59082;50.658;4.608;2022-10-31T15:31:27;5.53;;;3.47;;
71296;SDS011;59082;50.658;4.608;2022-10-31T15:33:53;10.00;;;3.00;;
71296;SDS011;59082;50.658;4.608;2022-10-31T15:36:25;9.38;;;3.47;;
71296;SDS011;59082;50.658;4.608;2022-10-31T15:38:51;9.30;;;7.00;;
71296;SDS011;59082;50.658;4.608;2022-10-31T15:41:37;14.77;;;5.72;;
71296;SDS011;59082;50.658;4.608;2022-10-31T15:44:34;8.02;;;5.03;;
71296;SDS011;59082;50.658;4.608;2022-10-31T15:47:03;5.93;;;3.70;;
71296;SDS011;59082;50.658;4.608;2022-10-31T15:49:32;6.57;;;3.15;;
71296;SDS011;59082;50.658;4.608;2022-10-31T15:54:46;8.50;;;4.10;;
71296;SDS011;59082;50.658;4.608;2022-10-31T15:57:13;8.20;;;3.50;;
71296;SDS011;59082;50.658;4.608;2022-10-31T15:59:40;9.20;;;2.93;;
71296;SDS011;59082;50.658;4.608;2022-10-31T16:02:10;10.52;;;3.85;;
71296;SDS011;59082;50.658;4.608;2022-10-31T16:04:47;8.45;;;5.07;;
71296;SDS011;59082;50.658;4.608;2022-10-31T16:07:15;9.07;;;4.80;;
71296;SDS011;59082;50.658;4.608;2022-10-31T16:09:49;7.68;;;3.75;;
71296;SDS011;59082;50.658;4.608;2022-10-31T16:12:16;5.80;;;3.97;;
71296;SDS011;59082;50.658;4.608;2022-10-31T16:14:42;8.10;;;3.30;;
71296;SDS011;59082;50.658;4.608;2022-10-31T16:17:11;9.63;;;4.53;;
71296;SDS011;59082;50.658;4.608;2022-10-31T16:19:47;5.67;;;3.77;;
71296;SDS011;59082;50.658;4.608;2022-10-31T16:22:26;8.57;;;3.45;;
71296;SDS011;59082;50.658;4.608;2022-10-31T16:24:55;10.43;;;4.22;;
71296;SDS011;59082;50.658;4.608;2022-10-31T16:27:35;9.77;;;3.63;;
71296;SDS011;59082;50.658;4.608;2022-10-31T16:30:03;8.48;;;4.57;;
71296;SDS011;59082;50.658;4.608;2022-10-31T16:32:53;10.13;;;3.90;;
71296;SDS011;59082;50.658;4.608;2022-10-31T16:35:28;7.75;;;3.97;;
71296;SDS011;59082;50.658;4.608;2022-10-31T16:37:58;9.65;;;4.88;;
71296;SDS011;59082;50.658;4.608;2022-10-31T16:40:23;7.77;;;3.90;;
71296;SDS011;59082;50.658;4.608;2022-10-31T16:42:49;9.60;;;5.00;;
71296;SDS011;59082;50.658;4.608;2022-10-31T16:45:19;9.60;;;4.22;;
71296;SDS011;59082;50.658;4.608;2022-10-31T16:47:46;10.77;;;5.03;;
71296;SDS011;59082;50.658;4.608;2022-10-31T16:50:14;8.80;;;4.22;;
71296;SDS011;59082;50.658;4.608;2022-10-31T16:52:47;6.72;;;4.55;;
71296;SDS011;59082;50.658;4.608;2022-10-31T16:55:13;15.07;;;4.17;;
71296;SDS011;59082;50.658;4.608;2022-10-31T16:57:41;6.63;;;3.92;;
71296;SDS011;59082;50.658;4.608;2022-10-31T17:00:20;7.10;;;3.95;;
71296;SDS011;59082;50.658;4.608;2022-10-31T17:02:48;9.38;;;4.78;;
71296;SDS011;59082;50.658;4.608;2022-10-31T17:05:15;14.50;;;4.50;;
71296;SDS011;59082;50.658;4.608;2022-10-31T17:07:42;9.43;;;4.57;;
71296;SDS011;59082;50.658;4.608;2022-10-31T17:10:08;8.60;;;4.50;;
71296;SDS011;59082;50.658;4.608;2022-10-31T17:12:35;7.25;;;4.82;;
71296;SDS011;59082;50.658;4.608;2022-10-31T17:15:03;9.23;;;4.43;;
71296;SDS011;59082;50.658;4.608;2022-10-31T17:17:31;10.32;;;4.90;;
71296;SDS011;59082;50.658;4.608;2022-10-31T17:19:57;6.35;;;4.40;;
71296;SDS011;59082;50.658;4.608;2022-10-31T17:22:22;11.83;;;5.30;;
71296;SDS011;59082;50.658;4.608;2022-10-31T17:24:48;8.50;;;4.60;;
71296;SDS011;59082;50.658;4.608;2022-10-31T17:27:13;10.32;;;5.90;;
71296;SDS011;59082;50.658;4.608;2022-10-31T17:29:39;8.50;;;5.77;;
71296;SDS011;59082;50.658;4.608;2022-10-31T17:32:04;8.50;;;4.90;;
71296;SDS011;59082;50.658;4.608;2022-10-31T17:34:30;6.23;;;4.30;;
71296;SDS011;59082;50.658;4.608;2022-10-31T17:36:55;10.83;;;4.80;;
71296;SDS011;59082;50.658;4.608;2022-10-31T17:39:21;6.00;;;3.97;;
71296;SDS011;59082;50.658;4.608;2022-10-31T17:41:50;8.00;;;4.53;;
71296;SDS011;59082;50.658;4.608;2022-10-31T17:44:17;13.07;;;5.32;;
71296;SDS011;59082;50.658;4.608;2022-10-31T17:46:42;9.07;;;4.43;;
71296;SDS011;59082;50.658;4.608;2022-10-31T17:49:10;11.20;;;6.10;;
71296;SDS011;59082;50.658;4.608;2022-10-31T17:51:36;12.85;;;5.32;;
71296;SDS011;59082;50.658;4.608;2022-10-31T17:54:02;7.93;;;4.72;;
71296;SDS011;59082;50.658;4.608;2022-10-31T17:56:30;9.00;;;5.03;;
71296;SDS011;59082;50.658;4.608;2022-10-31T17:58:55;11.40;;;4.72;;
71296;SDS011;59082;50.658;4.608;2022-10-31T18:01:22;11.40;;;5.40;;
71296;SDS011;59082;50.658;4.608;2022-10-31T18:03:48;8.60;;;5.40;;
71296;SDS011;59082;50.658;4.608;2022-10-31T18:06:13;10.50;;;5.10;;
71296;SDS011;59082;50.658;4.608;2022-10-31T18:08:41;8.93;;;5.43;;
71296;SDS011;59082;50.658;4.608;2022-10-31T18:11:09;7.67;;;4.40;;
71296;SDS011;59082;50.658;4.608;2022-10-31T18:13:43;9.52;;;4.95;;
71296;SDS011;59082;50.658;4.608;2022-10-31T18:16:10;8.73;;;5.45;;
71296;SDS011;59082;50.658;4.608;2022-10-31T18:18:38;8.93;;;4.77;;
71296;SDS011;59082;50.658;4.608;2022-10-31T18:21:04;14.55;;;5.85;;
71296;SDS011;59082;50.658;4.608;2022-10-31T18:23:30;15.00;;;5.85;;
71296;SDS011;59082;50.658;4.608;2022-10-31T18:25:55;13.43;;;6.37;;
71296;SDS011;59082;50.658;4.608;2022-10-31T18:28:20;10.70;;;5.73;;
71296;SDS011;59082;50.658;4.608;2022-10-31T18:30:46;12.02;;;5.45;;
71296;SDS011;59082;50.658;4.608;2022-10-31T18:33:12;10.87;;;6.13;;
71296;SDS011;59082;50.658;4.608;2022-10-31T18:35:38;10.80;;;7.35;;
71296;SDS011;59082;50.658;4.608;2022-10-31T18:38:04;13.33;;;6.63;;
71296;SDS011;59082;50.658;4.608;2022-10-31T18:40:31;11.07;;;5.60;;
71296;SDS011;59082;50.658;4.608;2022-10-31T18:42:57;9.63;;;6.68;;
71296;SDS011;59082;50.658;4.608;2022-10-31T18:45:23;10.30;;;5.73;;
71296;SDS011;59082;50.658;4.608;2022-10-31T18:47:51;10.10;;;5.80;;
71296;SDS011;59082;50.658;4.608;2022-10-31T18:50:17;10.02;;;6.05;;
71296;SDS011;59082;50.658;4.608;2022-10-31T18:52:43;12.53;;;6.33;;
71296;SDS011;59082;50.658;4.608;2022-10-31T18:55:09;11.00;;;5.85;;
71296;SDS011;59082;50.658;4.608;2022-10-31T18:57:34;10.87;;;5.27;;
71296;SDS011;59082;50.658;4.608;2022-10-31T19:00:00;9.93;;;4.78;;
71296;SDS011;59082;50.658;4.608;2022-10-31T19:02:27;11.10;;;4.93;;
71296;SDS011;59082;50.658;4.608;2022-10-31T19:04:53;11.40;;;5.55;;
71296;SDS011;59082;50.658;4.608;2022-10-31T19:07:18;13.07;;;5.40;;
71296;SDS011;59082;50.658;4.608;2022-10-31T19:09:44;10.60;;;5.20;;
71296;SDS011;59082;50.658;4.608;2022-10-31T19:12:09;9.40;;;5.10;;
71296;SDS011;59082;50.658;4.608;2022-10-31T19:14:35;9.27;;;5.57;;
71296;SDS011;59082;50.658;4.608;2022-10-31T19:17:00;8.57;;;5.30;;
71296;SDS011;59082;50.658;4.608;2022-10-31T19:19:26;7.28;;;4.53;;
71296;SDS011;59082;50.658;4.608;2022-10-31T19:21:51;11.40;;;4.60;;
71296;SDS011;59082;50.658;4.608;2022-10-31T19:24:17;10.17;;;4.97;;
71296;SDS011;59082;50.658;4.608;2022-10-31T19:26:42;13.25;;;4.78;;
71296;SDS011;59082;50.658;4.608;2022-10-31T19:29:08;8.43;;;4.63;;
71296;SDS011;59082;50.658;4.608;2022-10-31T19:31:34;11.60;;;5.05;;
71296;SDS011;59082;50.658;4.608;2022-10-31T19:34:00;9.03;;;4.83;;
71296;SDS011;59082;50.658;4.608;2022-10-31T19:36:25;9.73;;;5.15;;
71296;SDS011;59082;50.658;4.608;2022-10-31T19:38:52;8.37;;;3.83;;
71296;SDS011;59082;50.658;4.608;2022-10-31T19:41:19;10.15;;;4.93;;
71296;SDS011;59082;50.658;4.608;2022-10-31T19:43:52;10.57;;;4.72;;
71296;SDS011;59082;50.658;4.608;2022-10-31T19:46:19;8.63;;;4.78;;
71296;SDS011;59082;50.658;4.608;2022-10-31T19:48:46;10.13;;;4.60;;
71296;SDS011;59082;50.658;4.608;2022-10-31T19:51:15;11.37;;;4.53;;
71296;SDS011;59082;50.658;4.608;2022-10-31T19:53:44;9.18;;;5.13;;
71296;SDS011;59082;50.658;4.608;2022-10-31T19:56:14;9.65;;;4.40;;
71296;SDS011;59082;50.658;4.608;2022-10-31T19:58:41;7.10;;;4.03;;
71296;SDS011;59082;50.658;4.608;2022-10-31T20:03:37;13.02;;;4.35;;
71296;SDS011;59082;50.658;4.608;2022-10-31T20:06:03;10.27;;;4.30;;
71296;SDS011;59082;50.658;4.608;2022-10-31T20:08:29;8.05;;;4.47;;
71296;SDS011;59082;50.658;4.608;2022-10-31T20:10:56;8.47;;;4.57;;
71296;SDS011;59082;50.658;4.608;2022-10-31T20:13:23;12.23;;;5.18;;
71296;SDS011;59082;50.658;4.608;2022-10-31T20:15:49;11.20;;;4.97;;
71296;SDS011;59082;50.658;4.608;2022-10-31T20:18:16;8.90;;;4.97;;
71296;SDS011;59082;50.658;4.608;2022-10-31T20:20:42;11.50;;;4.73;;
71296;SDS011;59082;50.658;4.608;2022-10-31T20:23:08;10.52;;;4.93;;
71296;SDS011;59082;50.658;4.608;2022-10-31T20:25:33;10.07;;;4.67;;
71296;SDS011;59082;50.658;4.608;2022-10-31T20:28:01;9.37;;;5.07;;
71296;SDS011;59082;50.658;4.608;2022-10-31T20:30:27;7.13;;;5.07;;
71296;SDS011;59082;50.658;4.608;2022-10-31T20:32:53;10.93;;;4.53;;
71296;SDS011;59082;50.658;4.608;2022-10-31T20:35:19;9.37;;;4.87;;
71296;SDS011;59082;50.658;4.608;2022-10-31T20:37:44;9.50;;;4.63;;
71296;SDS011;59082;50.658;4.608;2022-10-31T20:40:10;7.43;;;5.07;;
71296;SDS011;59082;50.658;4.608;2022-10-31T20:42:36;9.57;;;4.73;;
71296;SDS011;59082;50.658;4.608;2022-10-31T20:45:02;10.73;;;6.20;;
71296;SDS011;59082;50.658;4.608;2022-10-31T20:47:29;8.93;;;5.17;;
71296;SDS011;59082;50.658;4.608;2022-10-31T20:49:54;9.82;;;5.00;;
71296;SDS011;59082;50.658;4.608;2022-10-31T20:52:20;9.27;;;5.37;;
71296;SDS011;59082;50.658;4.608;2022-10-31T20:54:45;9.57;;;4.93;;
71296;SDS011;59082;50.658;4.608;2022-10-31T20:57:10;10.30;;;4.63;;
71296;SDS011;59082;50.658;4.608;2022-10-31T20:59:36;11.77;;;4.23;;
71296;SDS011;59082;50.658;4.608;2022-10-31T21:02:02;8.73;;;5.13;;
71296;SDS011;59082;50.658;4.608;2022-10-31T21:04:27;12.67;;;4.90;;
71296;SDS011;59082;50.658;4.608;2022-10-31T21:06:53;11.27;;;5.40;;
71296;SDS011;59082;50.658;4.608;2022-10-31T21:09:18;12.27;;;5.03;;
71296;SDS011;59082;50.658;4.608;2022-10-31T21:11:44;12.50;;;5.50;;
71296;SDS011;59082;50.658;4.608;2022-10-31T21:14:10;9.20;;;4.53;;
71296;SDS011;59082;50.658;4.608;2022-10-31T21:16:36;7.97;;;4.78;;
71296;SDS011;59082;50.658;4.608;2022-10-31T21:19:02;8.83;;;3.67;;
71296;SDS011;59082;50.658;4.608;2022-10-31T21:21:30;8.73;;;5.30;;
71296;SDS011;59082;50.658;4.608;2022-10-31T21:23:58;8.27;;;4.75;;
71296;SDS011;59082;50.658;4.608;2022-10-31T21:26:27;12.13;;;5.10;;
71296;SDS011;59082;50.658;4.608;2022-10-31T21:28:55;10.77;;;5.40;;
71296;SDS011;59082;50.658;4.608;2022-10-31T21:31:22;14.35;;;5.78;;
71296;SDS011;59082;50.658;4.608;2022-10-31T21:33:48;11.75;;;4.40;;
71296;SDS011;59082;50.658;4.608;2022-10-31T21:36:14;14.00;;;4.83;;
71296;SDS011;59082;50.658;4.608;2022-10-31T21:38:40;11.65;;;5.13;;
71296;SDS011;59082;50.658;4.608;2022-10-31T21:41:07;10.30;;;4.43;;
71296;SDS011;59082;50.658;4.608;2022-10-31T21:43:37;7.90;;;4.93;;
71296;SDS011;59082;50.658;4.608;2022-10-31T21:46:06;11.55;;;5.88;;
